Terminal Aerodrome Forecast
Issued by NWS

Home | Current Version | Previous Version | Text Only | Print | Product List | Glossary On
Versions: 1 2 3 4 5 6 7 8 9 10 11 12 13 14 15 16 17 18 19 20 21
806
FTUS41 KBTV 251141
TAFMSS
TAF
KMSS 251141Z 2512/2612 07010KT 3/4SM BR VV002 WS020/20035KT
      TEMPO 2512/2514 3SM BR OVC004
     FM251400 11006KT P6SM BKN030 WS020/20040KT
     FM251700 22014G24KT P6SM VCSH OVC030
      TEMPO 2518/2522 2SM +SHRA BR OVC015
     FM252200 23010G20KT 4SM -SHRA BR OVC020
     FM260000 24010G20KT P6SM VCSH OVC030
     FM260600 24010G20KT P6SM BKN030=

USA.gov is the U.S. government's official web portal to all federal, state and local government web resources and services.